createdAt,value
2019-04-23T00:01:16.454Z,14.88
2019-04-23T00:03:34.438Z,14.89
2019-04-23T00:06:15.178Z,14.89
2019-04-23T00:11:17.464Z,14.72
2019-04-23T00:14:05.992Z,14.81
2019-04-23T00:16:42.524Z,14.81
2019-04-23T00:19:10.308Z,14.73
2019-04-23T00:21:55.003Z,14.63
2019-04-23T00:25:39.393Z,14.63
2019-04-23T00:27:35.797Z,14.52
2019-04-23T00:30:01.027Z,14.52
2019-04-23T00:35:05.882Z,14.41
2019-04-23T00:37:54.907Z,14.37
2019-04-23T00:40:19.847Z,14.37
2019-04-23T00:42:53.327Z,14.39
2019-04-23T00:45:32.726Z,14.34
2019-04-23T00:48:01.991Z,14.31
2019-04-23T00:50:52.820Z,14.26
2019-04-23T00:53:17.408Z,14.26
2019-04-23T00:55:47.646Z,14.09
2019-04-23T00:58:22.074Z,14.17
2019-04-23T01:00:45.944Z,14.17
2019-04-23T01:03:17.480Z,14.19
2019-04-23T01:05:50.254Z,14.12
2019-04-23T01:08:20.204Z,14.12
2019-04-23T01:10:59.903Z,14.09
2019-04-23T01:13:36.299Z,14.01
2019-04-23T01:15:54.005Z,13.98
2019-04-23T01:18:38.157Z,13.98
2019-04-23T01:20:53.705Z,13.91
2019-04-23T01:23:37.659Z,13.88
2019-04-23T01:26:21.428Z,13.92
2019-04-23T01:28:57.400Z,13.95
2019-04-23T01:31:28.543Z,13.85
2019-04-23T01:33:55.534Z,13.86
2019-04-23T01:36:28.032Z,13.85
2019-04-23T01:39:01.052Z,13.85
2019-04-23T01:41:28.990Z,13.82
2019-04-23T01:43:51.720Z,13.78
2019-04-23T01:46:29.201Z,13.86
2019-04-23T01:48:58.214Z,13.76
2019-04-23T01:51:33.925Z,13.68
2019-04-23T01:53:58.749Z,13.68
2019-04-23T01:56:30.853Z,13.74
2019-04-23T02:01:31.699Z,13.70
2019-04-23T02:04:06.139Z,13.70
2019-04-23T02:06:33.165Z,13.72
2019-04-23T02:10:04.442Z,13.65
2019-04-23T02:11:34.241Z,13.65
2019-04-23T02:14:05.115Z,13.65
2019-04-23T02:19:03.096Z,13.58
2019-04-23T02:21:41.353Z,13.60
2019-04-23T02:24:03.673Z,13.42
2019-04-23T02:26:36.970Z,13.51
2019-04-23T02:34:21.697Z,13.42
2019-04-23T02:39:11.596Z,13.31
2019-04-23T02:41:54.425Z,13.28
2019-04-23T02:46:51.729Z,13.29
2019-04-23T02:49:27.056Z,13.33
2019-04-23T02:51:51.060Z,13.35
2019-04-23T02:54:38.031Z,13.23
2019-04-23T02:59:51.396Z,13.16
2019-04-23T03:01:57.539Z,13.09
2019-04-23T03:04:26.838Z,13.08
2019-04-23T03:06:55.978Z,13.03
2019-04-23T03:09:27.811Z,13.09
2019-04-23T03:16:58.412Z,12.99
2019-04-23T03:22:09.657Z,12.94
2019-04-23T03:25:07.145Z,12.87
2019-04-23T03:27:34.131Z,12.80
2019-04-23T03:30:12.191Z,12.77
2019-04-23T03:37:42.445Z,12.68
2019-04-23T03:42:42.747Z,12.72
2019-04-23T03:45:27.877Z,12.68
2019-04-23T03:47:37.499Z,12.70
2019-04-23T03:50:15.522Z,12.68
2019-04-23T03:55:11.876Z,12.53
2019-04-23T04:00:15.728Z,12.52
2019-04-23T04:02:54.841Z,12.46
2019-04-23T04:05:10.716Z,12.45
2019-04-23T04:07:53.503Z,12.39
2019-04-23T04:10:11.538Z,12.37
2019-04-23T04:15:18.355Z,12.18
2019-04-23T04:17:35.874Z,12.25
2019-04-23T04:20:19.887Z,12.26
2019-04-23T04:22:50.048Z,12.15
2019-04-23T04:25:21.260Z,12.08
2019-04-23T04:27:54.125Z,12.00
2019-04-23T04:30:19.210Z,12.02
2019-04-23T04:32:54.549Z,11.88
2019-04-23T04:35:22.379Z,11.95
2019-04-23T04:40:23.705Z,11.98
2019-04-23T04:42:48.974Z,11.93
2019-04-23T04:45:25.540Z,11.91
2019-04-23T04:47:44.768Z,11.91
2019-04-23T04:57:58.613Z,11.87
2019-04-23T05:00:27.523Z,11.97
2019-04-23T05:03:03.650Z,12.02
2019-04-23T05:07:48.096Z,11.98
2019-04-23T05:13:09.002Z,12.03
2019-04-23T05:15:28.258Z,12.12
2019-04-23T05:18:20.629Z,12.13
2019-04-23T05:20:28.193Z,12.11
2019-04-23T05:23:09.204Z,12.11
2019-04-23T05:25:24.283Z,12.13
2019-04-23T05:28:03.109Z,12.22
2019-04-23T05:30:31.723Z,12.22
2019-04-23T05:38:10.292Z,12.29
2019-04-23T05:40:37.469Z,12.35
2019-04-23T05:42:58.720Z,12.39
2019-04-23T05:45:31.522Z,12.43
2019-04-23T05:48:06.757Z,12.38
2019-04-23T05:50:54.078Z,12.36
2019-04-23T05:53:01.329Z,12.39
2019-04-23T05:55:29.749Z,12.48
2019-04-23T05:58:03.699Z,12.59
2019-04-23T06:00:32.405Z,12.55
2019-04-23T06:03:08.108Z,12.55
2019-04-23T06:05:42.995Z,12.64
2019-04-23T06:08:07.901Z,12.65
2019-04-23T06:10:34.060Z,12.75
2019-04-23T06:13:06.308Z,12.72
2019-04-23T06:15:36.951Z,12.79
2019-04-23T06:18:08.117Z,12.89
2019-04-23T06:20:45.052Z,12.94
2019-04-23T06:23:18.155Z,13.03
2019-04-23T06:28:09.367Z,13.25
2019-04-23T06:30:48.967Z,13.34
2019-04-23T06:33:14.559Z,13.35
2019-04-23T06:35:41.293Z,13.39
2019-04-23T06:40:41.893Z,13.50
2019-04-23T06:45:45.714Z,13.56
2019-04-23T06:50:51.118Z,13.69
2019-04-23T06:53:14.472Z,13.75
2019-04-23T06:55:51.116Z,13.83
2019-04-23T06:58:25.749Z,13.89
2019-04-23T07:00:48.841Z,13.94
2019-04-23T07:03:25.050Z,13.92
2019-04-23T07:08:56.281Z,14.01
2019-04-23T07:11:18.847Z,14.08
2019-04-23T07:13:50.810Z,14.15
2019-04-23T07:16:22.860Z,14.17
2019-04-23T07:18:40.925Z,14.28
2019-04-23T07:21:15.340Z,14.25
2019-04-23T07:23:44.823Z,14.25
2019-04-23T07:26:26.053Z,14.35
2019-04-23T07:28:51.399Z,14.46
2019-04-23T07:33:52.784Z,14.52
2019-04-23T07:36:19.372Z,14.68
2019-04-23T07:42:03.295Z,14.82
2019-04-23T07:44:58.072Z,14.91
2019-04-23T07:47:42.242Z,15.29
2019-04-23T07:50:26.093Z,15.41
2019-04-23T07:52:51.545Z,15.47
2019-04-23T07:55:21.996Z,15.48
2019-04-23T07:57:49.378Z,15.48
2019-04-23T08:00:20.991Z,15.60
2019-04-23T08:02:44.071Z,15.81
2019-04-23T08:07:49.747Z,15.84
2019-04-23T08:10:15.261Z,15.94
2019-04-23T08:12:48.035Z,16.11
2019-04-23T08:15:23.651Z,16.11
2019-04-23T08:17:43.487Z,16.27
2019-04-23T08:20:21.272Z,16.27
2019-04-23T08:22:48.055Z,16.39
2019-04-23T08:25:35.094Z,16.66
2019-04-23T08:28:07.990Z,16.68
2019-04-23T08:30:32.242Z,16.68
2019-04-23T08:33:03.946Z,17.00
2019-04-23T08:35:37.762Z,17.00
2019-04-23T08:38:21.153Z,17.09
2019-04-23T08:40:54.131Z,17.23
2019-04-23T08:45:59.572Z,17.55
2019-04-23T08:48:32.811Z,17.55
2019-04-23T08:51:09.605Z,17.79
2019-04-23T08:56:03.655Z,18.17
2019-04-23T08:58:30.142Z,18.35
2019-04-23T09:01:05.148Z,18.42
2019-04-23T09:06:06.337Z,18.58
2019-04-23T09:11:19.950Z,18.66
2019-04-23T09:16:05.265Z,18.77
2019-04-23T09:18:33.502Z,18.80
2019-04-23T09:21:12.762Z,19.05
2019-04-23T09:23:45.129Z,19.15
2019-04-23T09:26:03.942Z,19.19
2019-04-23T09:31:55.154Z,19.01
2019-04-23T09:34:08.053Z,19.03
2019-04-23T09:37:00.015Z,19.28
2019-04-23T09:42:09.239Z,19.48
2019-04-23T09:47:41.416Z,19.71
2019-04-23T09:50:13.999Z,19.76
2019-04-23T09:52:41.162Z,19.92
2019-04-23T09:55:16.011Z,20.00
2019-04-23T09:57:33.853Z,20.02
2019-04-23T10:00:12.607Z,20.01
2019-04-23T10:02:27.373Z,20.03
2019-04-23T10:04:55.547Z,20.13
2019-04-23T10:07:26.437Z,20.23
2019-04-23T10:09:40.711Z,20.26
2019-04-23T10:12:09.554Z,20.37
2019-04-23T10:14:38.774Z,20.49
2019-04-23T10:17:08.422Z,20.68
2019-04-23T10:19:37.090Z,20.60
2019-04-23T10:22:07.134Z,20.70
2019-04-23T10:24:37.003Z,20.63
2019-04-23T10:27:06.110Z,20.72
2019-04-23T10:29:38.358Z,20.74
2019-04-23T10:32:07.576Z,20.83
2019-04-23T10:34:47.073Z,20.91
2019-04-23T10:37:07.285Z,20.85
2019-04-23T10:39:40.808Z,20.76
2019-04-23T10:42:07.933Z,20.84
2019-04-23T10:44:44.360Z,20.78
2019-04-23T10:48:07.477Z,20.88
2019-04-23T10:53:27.737Z,20.89
2019-04-23T10:55:51.091Z,20.93
2019-04-23T10:58:16.867Z,21.03
2019-04-23T11:00:44.951Z,20.87
2019-04-23T11:03:37.326Z,21.07
2019-04-23T11:05:50.345Z,21.34
2019-04-23T11:08:11.886Z,21.47
2019-04-23T11:10:46.742Z,21.49
2019-04-23T11:13:25.781Z,21.44
2019-04-23T11:16:08.954Z,21.52
2019-04-23T11:18:31.247Z,21.59
2019-04-23T11:21:07.416Z,21.79
2019-04-23T11:23:23.639Z,21.84
2019-04-23T11:25:48.499Z,21.82
2019-04-23T11:28:26.061Z,22.01
2019-04-23T11:30:57.265Z,22.04
2019-04-23T11:33:35.672Z,22.21
2019-04-23T11:36:35.525Z,22.25
2019-04-23T11:38:50.766Z,22.49
2019-04-23T11:41:00.566Z,22.49
2019-04-23T11:48:52.327Z,22.61
2019-04-23T11:56:13.981Z,22.79
2019-04-23T11:58:35.707Z,22.76
2019-04-23T12:01:40.886Z,22.83
2019-04-23T12:04:05.124Z,22.59
2019-04-23T12:06:32.930Z,22.88
2019-04-23T12:09:09.337Z,22.92
2019-04-23T12:22:15.570Z,22.92
2019-04-23T12:32:43.282Z,22.90
2019-04-23T12:35:01.348Z,22.79
2019-04-23T12:45:29.048Z,23.32
2019-04-23T12:47:58.267Z,23.54
2019-04-23T12:53:05.714Z,23.73
2019-04-23T12:55:24.721Z,23.95
2019-04-23T12:58:05.887Z,23.84
2019-04-23T13:00:22.490Z,23.66
2019-04-23T13:02:52.398Z,23.76
2019-04-23T13:05:21.418Z,23.67
2019-04-23T13:07:54.002Z,23.88
2019-04-23T13:10:38.765Z,23.97
2019-04-23T13:15:22.596Z,23.92
2019-04-23T13:20:23.480Z,23.92
2019-04-23T13:25:48.075Z,24.04
2019-04-23T13:30:54.258Z,24.01
2019-04-23T13:36:03.278Z,24.11
2019-04-23T13:38:27.201Z,24.24
2019-04-23T13:40:59.780Z,24.21
2019-04-23T13:43:29.637Z,24.29
2019-04-23T13:48:18.338Z,24.51
2019-04-23T13:51:01.688Z,24.55
2019-04-23T13:53:40.801Z,24.66
2019-04-23T13:56:04.039Z,24.61
2019-04-23T13:58:43.321Z,24.51
2019-04-23T14:01:28.840Z,24.55
2019-04-23T14:04:04.095Z,24.74
2019-04-23T14:06:37.207Z,24.84
2019-04-23T14:09:14.628Z,24.93
2019-04-23T14:11:40.483Z,24.70
2019-04-23T14:14:34.462Z,24.46
2019-04-23T14:17:16.588Z,24.50
2019-04-23T14:19:21.450Z,24.53
2019-04-23T14:21:51.702Z,24.64
2019-04-23T14:24:45.219Z,24.82
2019-04-23T14:27:09.410Z,24.66
2019-04-23T14:32:22.532Z,24.70
2019-04-23T14:35:04.650Z,24.63
2019-04-23T14:38:01.672Z,24.59
2019-04-23T14:40:26.389Z,24.70
2019-04-23T14:43:06.630Z,24.48
2019-04-23T14:48:11.888Z,24.42
2019-04-23T14:55:56.934Z,24.02
2019-04-23T15:01:13.663Z,23.96
2019-04-23T15:04:19.144Z,23.95
2019-04-23T15:06:54.835Z,23.96
2019-04-23T15:12:02.158Z,24.08
2019-04-23T15:17:03.236Z,23.95
2019-04-23T15:19:47.919Z,23.89
2019-04-23T15:25:05.309Z,23.87
2019-04-23T15:27:15.786Z,23.89
2019-04-23T15:29:48.265Z,23.95
2019-04-23T15:32:34.518Z,24.26
2019-04-23T15:35:05.261Z,24.39
2019-04-23T15:37:45.144Z,24.20
2019-04-23T15:40:01.841Z,24.26
2019-04-23T15:45:01.321Z,24.50
2019-04-23T15:47:32.713Z,24.20
2019-04-23T15:52:39.597Z,23.68
2019-04-23T15:55:01.636Z,23.85
2019-04-23T15:58:05.482Z,23.85
2019-04-23T15:59:58.878Z,24.11
2019-04-23T16:02:04.113Z,23.92
2019-04-23T16:04:33.756Z,24.12
2019-04-23T16:07:02.559Z,24.09
2019-04-23T16:10:04.373Z,23.33
2019-04-23T16:12:25.351Z,23.38
2019-04-23T16:15:03.015Z,23.66
2019-04-23T16:20:14.783Z,23.84
2019-04-23T16:22:38.266Z,23.66
2019-04-23T16:25:17.305Z,23.48
2019-04-23T16:27:36.570Z,23.40
2019-04-23T16:30:17.375Z,23.25
2019-04-23T16:32:57.766Z,23.13
2019-04-23T16:38:10.355Z,23.30
2019-04-23T16:40:36.260Z,23.13
2019-04-23T16:43:07.077Z,23.12
2019-04-23T16:45:31.611Z,22.87
2019-04-23T16:48:07.453Z,22.81
2019-04-23T16:53:07.284Z,22.78
2019-04-23T16:55:29.405Z,22.70
2019-04-23T16:58:01.574Z,22.49
2019-04-23T17:00:30.552Z,22.52
2019-04-23T17:03:16.014Z,22.41
2019-04-23T17:05:39.585Z,22.47
2019-04-23T17:08:32.610Z,22.51
2019-04-23T17:10:36.675Z,22.58
2019-04-23T17:13:17.566Z,22.53
2019-04-23T17:15:46.368Z,22.29
2019-04-23T17:18:11.504Z,22.44
2019-04-23T17:23:16.919Z,22.49
2019-04-23T17:25:41.906Z,22.33
2019-04-23T17:28:20.145Z,22.25
2019-04-23T17:30:52.369Z,22.25
2019-04-23T17:36:18.517Z,22.28
2019-04-23T17:38:49.429Z,22.35
2019-04-23T17:41:44.004Z,22.37
2019-04-23T17:46:39.114Z,22.35
2019-04-23T17:49:04.533Z,22.30
2019-04-23T17:51:37.759Z,22.24
2019-04-23T17:54:22.525Z,22.17
2019-04-23T17:56:59.990Z,22.10
2019-04-23T17:59:25.366Z,22.05
2019-04-23T18:02:16.447Z,21.96
2019-04-23T18:04:38.724Z,21.93
2019-04-23T18:07:06.189Z,21.86
2019-04-23T18:09:48.807Z,21.83
2019-04-23T18:12:25.422Z,21.78
2019-04-23T18:14:50.875Z,21.71
2019-04-23T18:17:26.721Z,21.63
2019-04-23T18:20:19.355Z,21.54
2019-04-23T18:25:37.466Z,21.38
2019-04-23T18:28:01.786Z,21.16
2019-04-23T18:31:06.068Z,21.10
2019-04-23T18:36:25.493Z,20.97
2019-04-23T18:39:22.263Z,20.86
2019-04-23T18:42:02.266Z,20.78
2019-04-23T18:44:36.505Z,20.68
2019-04-23T18:47:07.626Z,20.62
2019-04-23T18:52:48.451Z,20.44
2019-04-23T18:55:35.005Z,20.34
2019-04-23T18:57:57.291Z,20.26
2019-04-23T19:00:53.632Z,20.25
2019-04-23T19:03:57.480Z,19.98
2019-04-23T19:06:32.612Z,19.92
2019-04-23T19:14:47.966Z,19.39
2019-04-23T19:19:48.380Z,19.22
2019-04-23T19:22:27.335Z,19.15
2019-04-23T19:24:53.454Z,19.14
2019-04-23T19:27:47.295Z,19.03
2019-04-23T19:30:09.342Z,19.03
2019-04-23T19:33:32.335Z,18.91
2019-04-23T19:36:28.187Z,18.82
2019-04-23T19:38:56.065Z,18.74
2019-04-23T19:41:47.533Z,18.68
2019-04-23T19:44:01.232Z,18.52
2019-04-23T19:46:50.575Z,18.40
2019-04-23T19:49:13.268Z,18.34
2019-04-23T19:51:53.636Z,18.25
2019-04-23T20:02:33.867Z,17.79
2019-04-23T20:04:46.092Z,17.83
2019-04-23T20:07:22.674Z,17.87
2019-04-23T20:09:55.187Z,17.88
2019-04-23T20:12:36.900Z,17.82
2019-04-23T20:15:00.192Z,17.55
2019-04-23T20:20:04.406Z,17.54
2019-04-23T20:22:51.183Z,17.39
2019-04-23T20:25:56.960Z,17.31
2019-04-23T20:28:41.091Z,17.22
2019-04-23T20:31:16.207Z,17.03
2019-04-23T20:36:59.514Z,17.14
2019-04-23T20:42:27.249Z,17.15
2019-04-23T20:45:04.830Z,17.21
2019-04-23T20:48:01.943Z,17.10
2019-04-23T20:50:27.743Z,16.88
2019-04-23T20:52:51.515Z,16.76
2019-04-23T20:55:48.092Z,16.75
2019-04-23T20:58:20.902Z,16.76
2019-04-23T21:01:13.285Z,16.76
2019-04-23T21:12:04.888Z,16.61
2019-04-23T21:14:48.495Z,16.66
2019-04-23T21:17:07.370Z,16.46
2019-04-23T21:20:01.535Z,16.60
2019-04-23T21:22:17.378Z,16.13
2019-04-23T21:24:54.665Z,16.27
2019-04-23T21:27:55.330Z,16.26
2019-04-23T21:34:06.049Z,16.31
2019-04-23T21:36:57.551Z,16.30
2019-04-23T21:40:04.774Z,16.23
2019-04-23T21:42:32.712Z,16.11
2019-04-23T21:45:02.571Z,16.11
2019-04-23T21:50:12.307Z,16.11
2019-04-23T21:52:51.045Z,16.02
2019-04-23T21:55:15.633Z,16.02
2019-04-23T21:57:53.822Z,16.29
2019-04-23T22:00:19.124Z,16.24
2019-04-23T22:03:18.114Z,16.06
2019-04-23T22:05:49.653Z,16.19
2019-04-23T22:08:43.820Z,16.19
2019-04-23T22:14:34.095Z,16.07
2019-04-23T22:17:25.922Z,16.07
2019-04-23T22:20:06.080Z,16.10
2019-04-23T22:22:44.191Z,16.23
2019-04-23T22:25:11.015Z,16.41
2019-04-23T22:27:52.920Z,16.41
2019-04-23T22:30:25.849Z,16.51
2019-04-23T22:35:35.103Z,16.38
2019-04-23T22:40:34.489Z,16.36
2019-04-23T22:48:46.135Z,16.64
2019-04-23T22:51:21.391Z,16.64
2019-04-23T22:56:51.822Z,16.69
2019-04-23T23:02:07.785Z,16.71
2019-04-23T23:04:54.549Z,16.65
2019-04-23T23:07:19.742Z,16.55
2019-04-23T23:12:31.768Z,16.32
2019-04-23T23:15:05.245Z,16.20
2019-04-23T23:17:41.988Z,16.20
2019-04-23T23:20:14.017Z,16.17
2019-04-23T23:23:06.474Z,16.17
2019-04-23T23:25:23.371Z,16.14
2019-04-23T23:28:05.968Z,16.17
2019-04-23T23:30:33.765Z,16.10
2019-04-23T23:33:13.329Z,16.00
2019-04-23T23:35:44.504Z,16.40
2019-04-23T23:38:24.062Z,16.35
2019-04-23T23:41:14.143Z,16.35
2019-04-23T23:43:54.993Z,16.33
2019-04-23T23:48:51.318Z,16.57
2019-04-23T23:54:13.329Z,16.58
2019-04-23T23:56:40.089Z,16.58
2019-04-23T23:59:10.409Z,16.77
